Hlavní strana
METAR-TAF:

METAR-TAF

Letiště :

Charleston, Jižní Karolína, Spojené státy americké

zeměpisná šířka: 32-42-03N, zeměpisná délka: 080-00-10W, výška: 5 m

Aktuální stav počasí

Zpráva byla vytvořena před 15 minutami, v 02:55 UTC
Západojihozápadní vítr 4 kt
Teplota 26°C
Vlhkost vzduchu 94%
Tlak 1012 hPa
Viditelnost: 16.1 km
Polojasno ve výšce 4700 ft

METAR: KJZI 100255Z AUTO 24004KT 10SM SCT047 26/25 A2988 RMK AO2

Čas: 23:10 (03:10 UTC)


TAF: chybějící

Stav a předpovědi počasí z více než 4 000 letišť (zprávy METAR a TAF).

Červené a žluté tečky na mapě představují dostupné meteorologické stanice.

Když kurzor umístíte na tečku, zobrazí se název stanice.

Pak kliknutím zobrazíte stav a předpověď počasí.

Chcete-li změnit mapu, kliknutím na zelené tlačítko se znaménkem +mapu přiblížíte, kliknutím na zelené tlačítko se znaménkem – mapu oddálíte a kliknutím na zelené šipky přejdete na sousední mapy.


METAR-TAF: